Time;durP1;ratioP1;P1;durP2;ratioP2;P2;SDS_P1;SDS_P2;PMS_P1;PMS_P2;Temp;Humidity;BMP_temperature;BMP_pressure;BME280_temperature;BME280_humidity;BME280_pressure;Samples;Min_cycle;Max_cycle;Signal;HPM_P1;HPM_P2
2021/10/28 00:12:13;;;;;;;;;;;;;;;21.51;31.76;98905.50;4960552;29;1018;-78
2021/10/28 00:12:53;;;;;;;;;;;;;;;21.44;32.09;98895.03;5000445;28;933;-78
2021/10/28 00:15:27;;;;;;;;;;;;;;;21.75;31.82;98897.91;5000300;28;1106;-78
2021/10/28 00:20:28;;;;;;;;;;;;;;;21.73;31.46;98884.16;4961515;29;989;-78
2021/10/28 00:22:54;;;;;;;;;;;;;;;21.71;31.09;98886.63;4960758;29;1891;-78
2021/10/28 00:25:20;;;;;;;;;;;;;;;21.58;31.47;98883.53;4961815;28;1290;-78
2021/10/28 00:27:46;;;;;;;;;;;;;;;21.71;31.17;98877.31;4960907;28;1104;-78
2021/10/28 00:30:11;;;;;;;;;;;;;;;21.64;31.58;98886.69;4960942;28;986;-79
2021/10/28 00:32:37;;;;;;;;;;;;;;;21.63;31.52;98887.13;4961469;28;1047;-78
2021/10/28 00:35:02;;;;;;;;;;;;;;;21.46;31.86;98874.81;4960654;28;1000;-78
2021/10/28 00:37:28;;;;;;;;;;;;;;;21.36;32.10;98876.53;4961619;28;840;-78
2021/10/28 00:39:53;;;;;;;;;;;;;;;21.40;32.00;98870.81;4960679;28;939;-78
2021/10/28 00:42:19;;;;;;;;;;;;;;;21.68;32.08;98869.66;4961582;28;1981;-78
2021/10/28 00:44:45;;;;;;;;;;;;;;;22.04;31.18;98870.78;4960208;28;946;-78
2021/10/28 00:47:11;;;;;;;;;;;;;;;21.85;31.08;98869.41;4961960;28;1077;-78
2021/10/28 00:49:37;;;;;;;;;;;;;;;21.72;31.45;98868.41;4976193;28;968;-78
2021/10/28 00:52:03;;;;;;;;;;;;;;;21.66;31.21;98867.28;4981189;28;1112;-78
2021/10/28 00:54:28;;;;;;;;;;;;;;;21.57;31.49;98869.81;4980206;28;993;-78
2021/10/28 00:56:54;;;;;;;;;;;;;;;21.53;31.53;98861.34;4981277;28;999;-78
2021/10/28 00:59:19;;;;;;;;;;;;;;;21.46;31.78;98857.81;4979869;28;906;-78
2021/10/28 01:01:45;;;;;;;;;;;;;;;21.57;31.43;98852.81;4979578;28;1979;-78
2021/10/28 01:04:10;;;;;;;;;;;;;;;21.53;31.80;98860.56;4963744;28;983;-78
2021/10/28 01:06:36;;;;;;;;;;;;;;;21.53;31.54;98857.72;5002353;28;918;-78
2021/10/28 01:09:03;;;;;;;;;;;;;;;21.42;31.90;98851.41;5000847;28;1376;-78
2021/10/28 01:11:28;;;;;;;;;;;;;;;21.47;31.66;98848.09;5000543;28;928;-78
2021/10/28 01:13:54;;;;;;;;;;;;;;;21.47;31.71;98848.09;4998980;28;972;-78
2021/10/28 01:16:20;;;;;;;;;;;;;;;21.59;31.43;98848.31;5004754;28;1125;-79
2021/10/28 01:18:46;;;;;;;;;;;;;;;21.53;31.33;98841.53;4998510;28;979;-78
2021/10/28 01:21:11;;;;;;;;;;;;;;;21.42;31.30;98840.88;4961454;29;944;-78
2021/10/28 01:23:38;;;;;;;;;;;;;;;21.57;31.65;98844.31;4959267;29;1988;-78
2021/10/28 01:26:05;;;;;;;;;;;;;;;21.84;31.34;98845.16;4962305;29;1083;-78
2021/10/28 01:28:30;;;;;;;;;;;;;;;22.07;30.95;98852.09;4958901;29;1014;-78
2021/10/28 01:31:00;;;;;;;;;;;;;;;21.87;30.84;98854.84;4961645;29;922;-79
2021/10/28 01:33:26;;;;;;;;;;;;;;;21.70;30.93;98856.69;4958617;29;959;-78
2021/10/28 01:35:53;;;;;;;;;;;;;;;21.54;31.14;98854.47;4929397;29;1003;-78
2021/10/28 01:38:18;;;;;;;;;;;;;;;21.58;31.54;98854.41;4958856;29;1041;-78
2021/10/28 01:40:52;;;;;;;;;;;;;;;21.40;31.63;98853.81;4960919;29;922;-78
2021/10/28 01:43:17;;;;;;;;;;;;;;;21.45;31.78;98856.19;4958865;29;2001;-78
2021/10/28 01:45:43;;;;;;;;;;;;;;;21.51;31.60;98848.84;4961224;29;936;-78
2021/10/28 01:48:09;;;;;;;;;;;;;;;21.50;31.59;98852.88;4959333;29;1169;-78
2021/10/28 01:50:35;;;;;;;;;;;;;;;21.50;31.55;98841.56;4976410;28;945;-78
2021/10/28 01:53:00;;;;;;;;;;;;;;;21.43;31.65;98853.78;5013848;28;1011;-77
2021/10/28 01:55:25;;;;;;;;;;;;;;;21.38;31.62;98856.28;5020770;28;925;-77
2021/10/28 01:57:51;;;;;;;;;;;;;;;21.40;31.60;98853.81;5019151;28;929;-78
2021/10/28 02:00:17;;;;;;;;;;;;;;;21.51;31.81;98857.34;5020123;28;925;-78
2021/10/28 02:02:43;;;;;;;;;;;;;;;21.94;31.04;98859.59;4998325;28;1906;-78
2021/10/28 02:05:11;;;;;;;;;;;;;;;22.06;30.69;98853.34;4998212;28;958;-78
2021/10/28 02:07:37;;;;;;;;;;;;;;;21.84;30.73;98852.84;4998486;28;1073;-78
2021/10/28 02:10:04;;;;;;;;;;;;;;;21.51;30.97;98848.84;4997673;28;1032;-77
2021/10/28 02:12:31;;;;;;;;;;;;;;;21.50;30.60;98847.22;5015032;28;1065;-78
2021/10/28 02:14:56;;;;;;;;;;;;;;;21.44;31.10;98841.25;4997870;28;1019;-78
2021/10/28 02:17:22;;;;;;;;;;;;;;;21.37;31.42;98843.38;4998833;28;1213;-78
2021/10/28 02:19:47;;;;;;;;;;;;;;;21.40;31.54;98848.16;4997534;28;902;-78
2021/10/28 02:22:12;;;;;;;;;;;;;;;21.42;31.42;98840.88;4998847;28;1906;-79
2021/10/28 02:24:38;;;;;;;;;;;;;;;21.32;31.60;98836.94;4997617;28;1016;-78
2021/10/28 02:27:03;;;;;;;;;;;;;;;21.37;31.23;98837.72;4998903;28;1015;-78
2021/10/28 02:29:29;;;;;;;;;;;;;;;21.53;31.42;98829.41;4997070;28;1118;-78
2021/10/28 02:31:54;;;;;;;;;;;;;;;21.90;30.85;98833.34;4999025;28;1007;-78
2021/10/28 02:34:20;;;;;;;;;;;;;;;22.03;30.34;98835.16;4979751;28;1292;-78
2021/10/28 02:36:46;;;;;;;;;;;;;;;21.70;30.65;98839.69;5020976;28;935;-78
2021/10/28 02:39:12;;;;;;;;;;;;;;;21.61;30.66;98839.41;5019142;28;979;-78
2021/10/28 02:41:37;;;;;;;;;;;;;;;21.49;30.69;98845.63;5020324;28;1967;-78
2021/10/28 02:44:03;;;;;;;;;;;;;;;21.69;31.05;98842.94;5000350;28;1127;-78
2021/10/28 02:46:29;;;;;;;;;;;;;;;21.87;30.39;98842.72;5018832;28;1474;-78
2021/10/28 02:48:54;;;;;;;;;;;;;;;21.95;30.34;98832.88;5019239;28;968;-77
2021/10/28 02:51:20;;;;;;;;;;;;;;;21.63;30.49;98844.66;5020526;28;917;-77
2021/10/28 02:53:45;;;;;;;;;;;;;;;21.74;30.42;98846.09;5019086;28;931;-79
2021/10/28 02:56:11;;;;;;;;;;;;;;;21.61;30.50;98842.25;5021544;28;869;-78
2021/10/28 02:58:37;;;;;;;;;;;;;;;21.53;30.89;98847.19;5018644;28;1023;-78
2021/10/28 03:01:02;;;;;;;;;;;;;;;21.56;30.98;98839.91;5021708;28;919;-78
2021/10/28 03:03:27;;;;;;;;;;;;;;;21.64;30.85;98852.72;5017924;28;1883;-78
2021/10/28 03:05:53;;;;;;;;;;;;;;;21.71;30.55;98852.63;4998361;28;905;-78
2021/10/28 03:08:18;;;;;;;;;;;;;;;21.52;30.86;98844.78;4996032;28;1026;-79
2021/10/28 03:10:44;;;;;;;;;;;;;;;21.48;30.86;98844.03;4997880;28;937;-78
2021/10/28 03:13:09;;;;;;;;;;;;;;;21.48;31.07;98847.66;4996292;28;850;-79
2021/10/28 03:15:37;;;;;;;;;;;;;;;21.49;30.73;98851.28;5014130;28;969;-78
2021/10/28 03:26:14;;;;;;;;;;;;;;;21.83;30.67;98854.88;4998185;28;1019;-78
2021/10/28 03:28:40;;;;;;;;;;;;;;;22.08;30.46;98853.72;4995943;28;977;-77
2021/10/28 03:31:05;;;;;;;;;;;;;;;21.78;30.83;98860.22;4998619;28;1000;-78
2021/10/28 03:33:33;;;;;;;;;;;;;;;21.70;30.47;98859.50;4995983;28;963;-79
2021/10/28 03:35:59;;;;;;;;;;;;;;;21.56;30.85;98863.34;5000952;28;1047;-78
2021/10/28 03:38:27;;;;;;;;;;;;;;;21.51;31.09;98860.19;5015371;28;962;-78
2021/10/28 04:20:45;;;;;;;;;;;;;;;21.44;31.05;98882.91;4936430;29;1024;-79
2021/10/28 04:31:19;;;;;;;;;;;;;;;21.92;30.07;98898.91;4981540;28;1021;-78
2021/10/28 04:33:45;;;;;;;;;;;;;;;21.88;29.91;98895.31;4979865;28;1013;-79
2021/10/28 04:36:10;;;;;;;;;;;;;;;21.61;30.39;98898.91;4962452;28;918;-78
2021/10/28 04:38:36;;;;;;;;;;;;;;;21.56;30.33;98899.38;4959780;28;1011;-78
2021/10/28 04:41:01;;;;;;;;;;;;;;;21.51;30.30;98899.81;4947056;28;944;-78
2021/10/28 04:43:27;;;;;;;;;;;;;;;21.74;30.76;98902.75;4905944;29;1910;-78
2021/10/28 04:45:52;;;;;;;;;;;;;;;22.05;30.29;98905.59;4924349;29;984;-79
2021/10/28 04:48:17;;;;;;;;;;;;;;;21.84;30.08;98912.34;4902856;29;1185;-78
2021/10/28 04:50:43;;;;;;;;;;;;;;;21.63;30.31;98913.44;4904935;29;968;-79
2021/10/28 04:53:08;;;;;;;;;;;;;;;21.54;30.43;98913.13;4903194;29;997;-78
2021/10/28 04:55:34;;;;;;;;;;;;;;;21.62;30.64;98916.69;4904182;29;968;-78
2021/10/28 04:57:59;;;;;;;;;;;;;;;22.03;29.91;98913.72;4903243;29;963;-78
2021/10/28 05:00:25;;;;;;;;;;;;;;;22.05;29.77;98919.75;4903885;29;983;-78
2021/10/28 05:02:50;;;;;;;;;;;;;;;21.66;30.59;98923.91;4887788;29;1976;-78
2021/10/28 05:05:16;;;;;;;;;;;;;;;21.66;30.32;98915.41;4884784;29;973;-78
2021/10/28 05:07:41;;;;;;;;;;;;;;;21.61;30.43;98938.53;4903804;29;1265;-77
2021/10/28 05:10:07;;;;;;;;;;;;;;;21.89;30.44;98936.56;4879199;29;1213;-78
2021/10/28 05:12:32;;;;;;;;;;;;;;;22.10;29.86;98937.13;4885780;29;987;-78
2021/10/28 05:14:58;;;;;;;;;;;;;;;21.67;30.33;98939.69;4883728;29;948;-77
2021/10/28 05:17:23;;;;;;;;;;;;;;;21.70;30.05;98947.31;4901140;29;1068;-78
2021/10/28 05:19:49;;;;;;;;;;;;;;;21.72;30.04;98942.06;4885141;29;1046;-77
2021/10/28 05:22:14;;;;;;;;;;;;;;;21.53;30.85;98942.69;4922318;29;1911;-78
2021/10/28 05:24:39;;;;;;;;;;;;;;;21.50;30.54;98950.00;4921608;29;1051;-78
2021/10/28 05:27:05;;;;;;;;;;;;;;;21.55;30.78;98948.72;4922360;29;985;-77
2021/10/28 05:29:30;;;;;;;;;;;;;;;21.47;31.06;98950.03;4921034;29;1040;-78
2021/10/28 05:31:56;;;;;;;;;;;;;;;21.58;30.71;98962.03;4921287;29;1030;-78
2021/10/28 05:34:21;;;;;;;;;;;;;;;21.51;31.06;98957.25;4937167;29;991;-78
2021/10/28 05:36:47;;;;;;;;;;;;;;;21.62;30.76;98962.81;4922359;29;1043;-78
2021/10/28 05:39:12;;;;;;;;;;;;;;;21.38;31.16;98961.03;4921316;29;906;-78
2021/10/28 05:41:38;;;;;;;;;;;;;;;21.53;30.79;98977.47;4935991;29;1911;-78
2021/10/28 05:44:03;;;;;;;;;;;;;;;21.61;30.60;98978.19;4939907;29;943;-78
2021/10/28 05:46:29;;;;;;;;;;;;;;;21.46;30.81;98976.75;4955318;29;959;-78
2021/10/28 05:48:54;;;;;;;;;;;;;;;21.46;31.15;98976.75;4959221;29;978;-78
2021/10/28 05:51:20;;;;;;;;;;;;;;;21.58;30.90;98979.81;4960579;29;955;-78
2021/10/28 05:53:47;;;;;;;;;;;;;;;21.51;30.80;98979.13;4986606;28;1024;-78
2021/10/28 05:56:12;;;;;;;;;;;;;;;21.45;31.05;98981.59;4982904;28;996;-79
2021/10/28 05:58:38;;;;;;;;;;;;;;;21.43;31.15;98984.03;4998917;28;969;-78
2021/10/28 06:01:04;;;;;;;;;;;;;;;21.47;30.85;98989.66;5019947;28;1163;-78
2021/10/28 06:03:30;;;;;;;;;;;;;;;21.58;30.57;98990.34;5018822;28;1902;-78
2021/10/28 06:05:56;;;;;;;;;;;;;;;21.50;30.99;98988.81;4999645;28;971;-78
2021/10/28 06:08:21;;;;;;;;;;;;;;;21.55;30.64;98991.19;4997047;28;964;-77
2021/10/28 06:10:47;;;;;;;;;;;;;;;21.63;30.88;98991.94;4999429;28;949;-78
2021/10/28 06:13:12;;;;;;;;;;;;;;;21.54;30.86;98996.06;4997293;28;997;-79
2021/10/28 06:15:38;;;;;;;;;;;;;;;21.44;31.09;98993.31;4998582;28;898;-79
2021/10/28 06:20:44;;;;;;;;;;;;;;;21.28;30.89;99000.31;4984531;28;941;-77
2021/10/28 06:23:09;;;;;;;;;;;;;;;21.53;30.57;99002.13;4996484;28;1898;-77
2021/10/28 06:25:35;;;;;;;;;;;;;;;22.00;30.17;99008.09;4998805;28;933;-77
2021/10/28 06:28:00;;;;;;;;;;;;;;;21.88;30.10;99000.16;4997238;28;967;-77
2021/10/28 06:30:26;;;;;;;;;;;;;;;21.58;30.38;99001.69;4997925;28;941;-77
2021/10/28 06:33:04;;;;;;;;;;;;;;;21.47;30.51;98990.47;4982003;28;1028;-78
2021/10/28 06:35:29;;;;;;;;;;;;;;;21.63;30.65;99008.91;4998477;28;964;-78
2021/10/28 06:37:55;;;;;;;;;;;;;;;21.49;30.68;99021.19;4995959;28;1040;-77
2021/10/28 06:40:24;;;;;;;;;;;;;;;21.37;30.92;99016.06;4998269;28;991;-77
2021/10/28 06:42:49;;;;;;;;;;;;;;;21.49;30.79;99012.69;4996905;28;1906;-77
2021/10/28 06:45:15;;;;;;;;;;;;;;;21.62;30.63;99002.47;4997063;28;866;-77
2021/10/28 06:47:41;;;;;;;;;;;;;;;22.01;30.16;99015.34;4998118;28;968;-78
2021/10/28 06:50:10;;;;;;;;;;;;;;;22.13;29.78;99019.72;4997080;28;1054;-79
2021/10/28 06:52:52;;;;;;;;;;;;;;;21.66;30.46;99008.88;4997656;28;915;-77
2021/10/28 06:55:29;;;;;;;;;;;;;;;21.53;30.42;99004.97;4981501;28;1005;-78
2021/10/28 07:02:14;;;;;;;;;;;;;;;21.49;30.34;99005.00;4997177;28;1027;-77
2021/10/28 07:03:28;;;;;;;;;;;;;;;21.43;30.96;99008.72;4995484;28;1981;-77
2021/10/28 07:06:02;;;;;;;;;;;;;;;21.41;31.01;99014.81;4998624;28;878;-77
2021/10/28 07:08:28;;;;;;;;;;;;;;;21.40;30.96;99004.72;4985573;28;914;-78
2021/10/28 07:10:57;;;;;;;;;;;;;;;21.59;30.97;99009.75;5018790;28;1008;-78
2021/10/28 07:13:26;;;;;;;;;;;;;;;22.04;30.09;99006.00;5015571;28;968;-78
2021/10/28 07:16:07;;;;;;;;;;;;;;;21.89;30.15;99004.59;5017757;28;1090;-77
2021/10/28 07:18:57;;;;;;;;;;;;;;;21.60;30.39;99004.88;5015431;28;883;-78
2021/10/28 07:58:48;;;;;;;;;;;;;;;21.41;31.25;99019.66;4847705;29;1068;-77
2021/10/28 08:18:25;;;;;;;;;;;;;;;21.65;30.55;99006.47;4864052;29;1291;-78
2021/10/28 08:28:53;;;;;;;;;;;;;;;21.97;30.58;99014.63;4793029;29;1070;-78
2021/10/28 08:31:20;;;;;;;;;;;;;;;21.91;30.38;99019.13;4792420;29;1022;-78
2021/10/28 08:33:45;;;;;;;;;;;;;;;21.79;30.47;99023.31;4774534;30;944;-78
2021/10/28 08:36:14;;;;;;;;;;;;;;;21.67;30.60;99009.69;4758286;30;1023;-77
2021/10/28 08:38:40;;;;;;;;;;;;;;;21.57;30.50;99008.56;4757205;30;1037;-77
2021/10/28 08:41:08;;;;;;;;;;;;;;;21.59;30.82;99014.63;4725017;30;1339;-78
2021/10/28 08:43:35;;;;;;;;;;;;;;;21.35;31.25;99018.50;4704622;30;1978;-78
2021/10/28 08:46:02;;;;;;;;;;;;;;;21.41;30.84;99017.63;4723886;30;1012;-78
2021/10/28 08:48:28;;;;;;;;;;;;;;;21.43;31.11;99023.69;4721583;30;974;-78
2021/10/28 08:51:05;;;;;;;;;;;;;;;21.43;31.08;99020.84;4735574;30;946;-78
2021/10/28 08:56:13;;;;;;;;;;;;;;;21.82;31.17;99023.28;4803144;29;969;-78
2021/10/28 09:29:00;;;;;;;;;;;;;;;21.40;30.83;99012.38;4883723;29;987;-77
2021/10/28 09:31:28;;;;;;;;;;;;;;;21.22;31.27;99013.31;4866316;29;988;-78
2021/10/28 09:34:09;;;;;;;;;;;;;;;21.41;30.96;99008.34;4883045;29;981;-78
2021/10/28 09:45:21;;;;;;;;;;;;;;;21.85;31.04;99010.28;4882340;29;1060;-79
2021/10/28 09:48:07;;;;;;;;;;;;;;;22.10;30.44;99009.97;4903318;29;977;-78
2021/10/28 09:50:47;;;;;;;;;;;;;;;22.21;30.34;99010.66;4884973;29;1019;-78
2021/10/28 09:53:32;;;;;;;;;;;;;;;21.99;30.45;99000.81;4883421;29;1027;-78
2021/10/28 09:58:41;;;;;;;;;;;;;;;21.52;30.86;98995.69;4883713;29;1011;-77
2021/10/28 10:01:10;;;;;;;;;;;;;;;21.60;30.86;98996.38;4872373;29;989;-78
2021/10/28 10:03:40;;;;;;;;;;;;;;;21.54;30.62;98992.41;4847560;29;1927;-79
2021/10/28 10:06:07;;;;;;;;;;;;;;;21.57;30.85;98985.91;4871221;29;1059;-79
2021/10/28 10:08:33;;;;;;;;;;;;;;;21.58;30.58;98993.19;4882889;29;945;-78
2021/10/28 10:10:58;;;;;;;;;;;;;;;21.71;31.03;98988.59;4887354;29;1129;-78
2021/10/28 10:13:27;;;;;;;;;;;;;;;21.98;30.77;98985.03;4901347;29;950;-78
2021/10/28 10:16:00;;;;;;;;;;;;;;;22.12;30.10;98984.06;4875235;29;2195;-78
2021/10/28 10:18:25;;;;;;;;;;;;;;;21.87;30.63;98984.38;4901620;29;973;-78
2021/10/28 10:21:15;;;;;;;;;;;;;;;21.53;31.08;98983.13;4908493;29;1005;-78
2021/10/28 10:24:05;;;;;;;;;;;;;;;21.62;30.90;98976.97;4921067;29;1879;-78
2021/10/28 11:04:00;;;;;;;;;;;;;;;21.54;30.83;98941.44;4920408;29;1984;-78
2021/10/28 11:21:08;;;;;;;;;;;;;;;22.03;30.72;98945.69;4901657;29;1264;-78
2021/10/28 11:23:42;;;;;;;;;;;;;;;21.74;31.04;98942.41;4874363;29;1918;-79
2021/10/28 11:30:05;;;;;;;;;;;;;;;21.38;31.48;98942.03;4906202;29;911;-78
2021/10/28 12:49:48;;;;;;;;;;;;;;;21.69;30.86;98905.25;4829792;29;990;-79
2021/10/28 13:03:11;;;;;;;;;;;;;;;21.92;31.23;98907.41;4873123;29;1903;-79
2021/10/28 13:35:58;;;;;;;;;;;;;;;21.67;31.65;98897.19;4869441;29;1086;-78
2021/10/28 14:33:10;;;;;;;;;;;;;;;21.47;31.01;98893.41;4845308;29;965;-79
2021/10/28 14:35:51;;;;;;;;;;;;;;;21.55;30.75;98894.91;4865307;29;994;-79
2021/10/28 15:29:53;;;;;;;;;;;;;;;21.55;30.86;98903.41;4957384;28;1171;-79
2021/10/28 15:40:11;;;;;;;;;;;;;;;21.82;30.45;98904.28;4937909;29;1874;-79
2021/10/28 16:22:38;;;;;;;;;;;;;;;21.49;30.73;98920.06;4887521;29;1969;-79
2021/10/28 16:25:04;;;;;;;;;;;;;;;21.54;30.84;98913.13;4885018;29;1636;-79
2021/10/28 16:27:29;;;;;;;;;;;;;;;21.49;31.08;98913.59;4887144;29;913;-79
2021/10/28 16:29:55;;;;;;;;;;;;;;;21.44;31.32;98912.03;4885560;29;1131;-79
2021/10/28 16:32:20;;;;;;;;;;;;;;;21.39;31.46;98914.50;4900785;29;927;-79
2021/10/28 16:34:46;;;;;;;;;;;;;;;21.80;31.65;98900.25;4904314;29;900;-79
2021/10/28 16:37:13;;;;;;;;;;;;;;;22.01;30.85;98902.78;4897349;29;988;-79
2021/10/28 16:39:39;;;;;;;;;;;;;;;21.72;31.12;98899.56;4859949;29;1013;-79
2021/10/28 16:42:04;;;;;;;;;;;;;;;21.56;31.13;98907.84;4850321;29;1907;-79
2021/10/28 16:44:30;;;;;;;;;;;;;;;21.58;30.76;98905.41;4857183;29;1026;-79
2021/10/28 16:46:56;;;;;;;;;;;;;;;21.69;30.83;98908.91;4903515;29;997;-79
2021/10/28 16:49:22;;;;;;;;;;;;;;;21.57;30.95;98910.25;4904339;29;930;-79
2021/10/28 16:51:47;;;;;;;;;;;;;;;21.65;30.96;98910.97;4906179;29;1071;-79
2021/10/28 16:54:16;;;;;;;;;;;;;;;21.51;31.19;98914.00;4918235;29;874;-79
2021/10/28 16:56:41;;;;;;;;;;;;;;;21.43;31.10;98915.28;4924326;29;1005;-79
2021/10/28 16:59:07;;;;;;;;;;;;;;;21.58;31.16;98911.84;4923282;29;905;-79
2021/10/28 17:01:32;;;;;;;;;;;;;;;21.45;31.20;98918.47;4924386;29;878;-78
2021/10/28 17:03:58;;;;;;;;;;;;;;;21.38;31.48;98918.56;4923045;29;1919;-79
2021/10/28 17:06:23;;;;;;;;;;;;;;;21.53;31.56;98920.03;4925162;29;1029;-79
2021/10/28 17:08:49;;;;;;;;;;;;;;;22.02;30.95;98920.59;4922577;29;901;-79
2021/10/28 17:11:15;;;;;;;;;;;;;;;22.11;30.71;98923.75;4998744;28;1068;-79
2021/10/28 17:13:42;;;;;;;;;;;;;;;21.93;30.49;98920.34;5020933;28;854;-79
2021/10/28 17:16:07;;;;;;;;;;;;;;;21.77;30.82;98923.78;5023601;28;1026;-79
2021/10/28 17:18:33;;;;;;;;;;;;;;;21.69;30.40;98928.72;5021060;28;1029;-80
2021/10/28 17:21:03;;;;;;;;;;;;;;;21.59;30.98;98924.78;5021803;28;997;-79
2021/10/28 17:23:32;;;;;;;;;;;;;;;21.51;31.18;98922.47;5018069;28;1890;-79
2021/10/28 17:26:00;;;;;;;;;;;;;;;21.52;31.18;98929.75;5021276;28;973;-79
2021/10/28 17:28:25;;;;;;;;;;;;;;;21.51;31.17;98933.81;5018599;28;904;-79
2021/10/28 17:30:51;;;;;;;;;;;;;;;21.47;31.34;98935.88;5021544;28;915;-79
2021/10/28 17:33:16;;;;;;;;;;;;;;;21.49;31.39;98930.56;5018377;28;981;-79
2021/10/28 17:35:43;;;;;;;;;;;;;;;21.54;31.46;98939.41;5003928;28;947;-79
2021/10/28 17:38:08;;;;;;;;;;;;;;;21.88;30.92;98934.97;4986244;28;981;-79
2021/10/28 17:40:34;;;;;;;;;;;;;;;22.09;30.44;98929.81;4981687;28;1352;-79
2021/10/28 17:42:59;;;;;;;;;;;;;;;21.80;30.80;98932.22;4979747;28;1894;-79
2021/10/28 17:45:26;;;;;;;;;;;;;;;21.68;30.56;98935.63;4980943;28;943;-79
2021/10/28 17:47:55;;;;;;;;;;;;;;;21.52;31.18;98941.88;4980594;28;951;-79
2021/10/28 17:50:21;;;;;;;;;;;;;;;21.75;31.18;98941.19;4981021;28;967;-79
2021/10/28 17:52:46;;;;;;;;;;;;;;;21.96;30.80;98930.81;4947979;28;1042;-79
2021/10/28 17:55:12;;;;;;;;;;;;;;;22.05;30.53;98931.09;4941280;29;952;-78
2021/10/28 17:57:38;;;;;;;;;;;;;;;21.75;30.69;98932.69;4942230;29;977;-79
2021/10/28 18:00:04;;;;;;;;;;;;;;;21.68;30.57;98931.97;4921908;29;944;-79
2021/10/28 18:02:32;;;;;;;;;;;;;;;21.52;31.08;98927.72;4923561;29;1990;-79
2021/10/28 18:04:59;;;;;;;;;;;;;;;21.63;30.88;98930.41;4922484;29;982;-79
2021/10/28 18:07:24;;;;;;;;;;;;;;;21.62;30.75;98928.81;4923937;29;974;-78
2021/10/28 18:09:50;;;;;;;;;;;;;;;21.54;31.00;98927.28;4922076;29;922;-79
2021/10/28 18:12:15;;;;;;;;;;;;;;;21.43;31.22;98932.28;4938365;29;913;-79
2021/10/28 18:14:41;;;;;;;;;;;;;;;21.54;31.30;98932.94;4956785;29;914;-79
2021/10/28 18:17:08;;;;;;;;;;;;;;;21.45;31.21;98936.31;4942637;29;1162;-79
2021/10/28 18:19:33;;;;;;;;;;;;;;;21.37;31.24;98934.75;4940516;29;847;-79
2021/10/28 18:21:59;;;;;;;;;;;;;;;21.79;30.99;98932.66;4957220;29;908;-79
2021/10/28 18:24:24;;;;;;;;;;;;;;;22.08;30.71;98935.91;4960359;29;1907;-79
2021/10/28 18:26:50;;;;;;;;;;;;;;;21.91;30.49;98928.44;4945188;29;894;-79
2021/10/28 18:29:15;;;;;;;;;;;;;;;21.70;30.72;98930.31;4960309;29;960;-79
2021/10/28 18:31:42;;;;;;;;;;;;;;;21.58;30.89;98928.06;5008004;28;1008;-78
2021/10/28 18:34:08;;;;;;;;;;;;;;;21.61;30.96;98930.06;5037524;28;1088;-79
2021/10/28 18:36:34;;;;;;;;;;;;;;;21.55;30.84;98928.88;5039086;28;1094;-79
2021/10/28 18:39:00;;;;;;;;;;;;;;;21.51;31.11;98928.94;5036919;28;975;-79
2021/10/28 18:41:26;;;;;;;;;;;;;;;21.36;31.04;98921.03;5039356;28;1000;-79
2021/10/28 18:43:51;;;;;;;;;;;;;;;21.46;31.28;98928.59;5037198;28;1908;-79
2021/10/28 18:46:18;;;;;;;;;;;;;;;21.62;31.54;98928.81;5038733;28;1104;-79
2021/10/28 18:48:44;;;;;;;;;;;;;;;21.93;30.76;98926.81;5037414;28;1031;-79
2021/10/28 18:51:10;;;;;;;;;;;;;;;22.12;30.42;98922.50;5039133;28;886;-79
2021/10/28 18:53:40;;;;;;;;;;;;;;;21.74;30.86;98925.41;5037107;28;1003;-79
2021/10/28 18:56:06;;;;;;;;;;;;;;;21.56;30.77;98936.19;5039734;28;933;-79
2021/10/28 18:58:31;;;;;;;;;;;;;;;21.63;30.94;98929.63;5036773;28;922;-79
2021/10/28 19:00:57;;;;;;;;;;;;;;;21.79;31.38;98933.44;5006840;28;968;-79
2021/10/28 19:03:22;;;;;;;;;;;;;;;22.05;30.45;98940.41;5036433;28;1898;-79
2021/10/28 19:05:52;;;;;;;;;;;;;;;21.76;30.44;98933.50;5024445;28;905;-79
2021/10/28 19:08:17;;;;;;;;;;;;;;;21.62;30.45;98945.81;5018794;28;914;-79
2021/10/28 19:10:43;;;;;;;;;;;;;;;21.63;30.45;98941.75;5021757;28;927;-79
2021/10/28 19:13:08;;;;;;;;;;;;;;;21.59;31.01;98935.31;5019461;28;881;-79
2021/10/28 19:15:34;;;;;;;;;;;;;;;21.90;30.76;98936.16;5021450;28;899;-80
2021/10/28 19:17:59;;;;;;;;;;;;;;;22.07;30.35;98928.63;5019174;28;1441;-79
2021/10/28 19:20:26;;;;;;;;;;;;;;;21.80;30.49;98929.38;5020446;28;826;-79
2021/10/28 19:22:54;;;;;;;;;;;;;;;21.58;30.69;98930.88;5019560;28;1887;-79
2021/10/28 19:25:19;;;;;;;;;;;;;;;21.49;30.85;98924.91;5021004;28;837;-79
2021/10/28 19:27:45;;;;;;;;;;;;;;;21.56;30.91;98931.31;5035804;28;923;-79
2021/10/28 19:32:41;;;;;;;;;;;;;;;21.45;30.89;98936.31;5020207;28;864;-79
2021/10/28 19:35:08;;;;;;;;;;;;;;;21.45;30.97;98929.81;5020105;28;848;-79
2021/10/28 19:37:44;;;;;;;;;;;;;;;21.53;31.14;98931.34;5020898;28;873;-78
2021/10/28 19:47:41;;;;;;;;;;;;;;;21.97;30.79;98940.94;5018383;28;920;-79
2021/10/28 19:50:07;;;;;;;;;;;;;;;22.05;30.16;98933.94;5017297;28;929;-79
2021/10/28 19:52:33;;;;;;;;;;;;;;;21.78;30.62;98940.34;5022140;28;996;-79
2021/10/28 19:55:03;;;;;;;;;;;;;;;21.74;30.37;98942.41;5004880;28;974;-79
2021/10/28 19:57:31;;;;;;;;;;;;;;;21.58;30.23;98936.53;5022740;28;991;-79
2021/10/28 20:00:20;;;;;;;;;;;;;;;21.60;30.56;98936.91;5001434;28;905;-79
2021/10/28 20:08:07;;;;;;;;;;;;;;;21.46;30.88;98948.44;5001780;28;888;-78
2021/10/28 20:13:47;;;;;;;;;;;;;;;21.45;31.01;98938.31;4993403;28;978;-79
2021/10/28 20:21:24;;;;;;;;;;;;;;;21.71;30.48;98939.63;4963385;29;964;-79
2021/10/28 20:23:50;;;;;;;;;;;;;;;21.51;30.79;98945.94;4962151;29;1985;-79
2021/10/28 20:26:16;;;;;;;;;;;;;;;21.72;30.11;98944.09;4964178;29;902;-79
2021/10/28 20:28:44;;;;;;;;;;;;;;;21.47;30.93;98944.38;4961702;29;939;-78
2021/10/28 20:31:10;;;;;;;;;;;;;;;21.51;30.71;98950.81;4975615;28;975;-79
2021/10/28 20:33:42;;;;;;;;;;;;;;;21.71;31.00;98943.28;4948185;28;982;-79
2021/10/28 20:37:05;;;;;;;;;;;;;;;21.92;30.37;98947.88;4983433;28;958;-79
2021/10/28 20:39:00;;;;;;;;;;;;;;;21.75;30.42;98944.03;4981043;28;930;-80
2021/10/28 20:41:26;;;;;;;;;;;;;;;21.53;30.77;98942.69;4950543;28;897;-79
2021/10/28 20:43:52;;;;;;;;;;;;;;;21.51;30.47;98945.13;4981377;28;1989;-79
2021/10/28 20:46:21;;;;;;;;;;;;;;;21.45;30.74;98946.78;4985589;28;957;-79
2021/10/28 20:48:47;;;;;;;;;;;;;;;21.79;30.77;98933.44;5002361;28;859;-79
2021/10/28 20:51:13;;;;;;;;;;;;;;;22.08;30.05;98933.09;5004475;28;906;-79
2021/10/28 20:53:38;;;;;;;;;;;;;;;21.79;30.26;98933.44;4960880;29;889;-79
2021/10/28 20:56:04;;;;;;;;;;;;;;;21.63;30.69;98930.41;4963394;29;1065;-79
2021/10/28 20:58:29;;;;;;;;;;;;;;;21.53;30.50;98931.34;4960608;29;1066;-79
2021/10/28 21:00:55;;;;;;;;;;;;;;;21.55;30.90;98928.88;4963972;28;1120;-78
2021/10/28 21:03:20;;;;;;;;;;;;;;;21.59;30.78;98924.00;4960974;29;1919;-79
2021/10/28 21:05:46;;;;;;;;;;;;;;;21.46;31.04;98935.06;4962808;29;1051;-79
2021/10/28 21:08:11;;;;;;;;;;;;;;;21.42;31.02;98930.66;4960840;29;872;-79
2021/10/28 21:10:37;;;;;;;;;;;;;;;21.36;31.18;98930.34;4963043;29;928;-79
2021/10/28 21:13:02;;;;;;;;;;;;;;;21.36;31.41;98932.34;4962008;29;962;-79
2021/10/28 21:15:27;;;;;;;;;;;;;;;21.33;31.08;98929.13;4962341;29;995;-79
2021/10/28 21:17:53;;;;;;;;;;;;;;;21.31;30.98;98928.75;4977987;28;1062;-79
2021/10/28 21:20:19;;;;;;;;;;;;;;;21.31;31.30;98919.47;4980999;28;990;-79
2021/10/28 21:22:44;;;;;;;;;;;;;;;21.37;31.19;98926.25;4961419;29;1952;-78
2021/10/28 21:25:10;;;;;;;;;;;;;;;21.44;30.79;98928.22;4989293;28;962;-79
2021/10/28 21:27:36;;;;;;;;;;;;;;;21.72;30.56;98915.75;5001085;28;987;-79
2021/10/28 21:30:03;;;;;;;;;;;;;;;22.05;30.03;98922.59;5000047;28;922;-78
2021/10/28 21:32:29;;;;;;;;;;;;;;;21.84;29.97;98918.81;5001393;28;1152;-79
2021/10/28 21:34:54;;;;;;;;;;;;;;;21.53;30.39;98920.81;4999394;28;913;-78
2021/10/28 21:37:19;;;;;;;;;;;;;;;21.57;30.41;98920.78;5000362;28;1035;-79
2021/10/28 21:39:45;;;;;;;;;;;;;;;21.54;30.28;98918.78;4999446;28;1073;-79
2021/10/28 21:42:11;;;;;;;;;;;;;;;21.76;30.89;98910.81;5000581;28;978;-79
2021/10/28 21:44:37;;;;;;;;;;;;;;;21.92;30.51;98921.56;4999068;28;1918;-79
2021/10/28 21:47:03;;;;;;;;;;;;;;;21.95;30.26;98913.00;5000688;28;937;-79
2021/10/28 21:49:28;;;;;;;;;;;;;;;21.60;30.68;98908.59;4999502;28;897;-78
2021/10/28 21:51:56;;;;;;;;;;;;;;;21.44;30.62;98912.03;5000760;28;954;-79
2021/10/28 21:54:37;;;;;;;;;;;;;;;21.44;30.73;98903.53;4999085;28;967;-79